Nearby METAR Data
EGNX - East Midlands, United Kingdom
Distance from station: SSE 24mi, 39km
Updated: 17/12/2017 15:20
Mostly Cloudy
Mostly Cloudy
 Wind from SW
Wind: SW 21 mph , 33 km/h
Temperature: 7°C
Wind Chill: 3°C
Dew Point: 7°C
Humidity: 100%
Barometer: 1016 hPa
Clouds: Mostly Cloudy
Visibility: 6 miles , 10 km
Cloud details: Partly Cloudy 183 m
Mostly Cloudy 610 m
2017/12/17 15:20 EGNX 171520Z 22018KT 9999 SCT006 BKN020 07/07 Q1016
EGCN - Doncaster Sheffi, United Kingdom
Distance from station: NE 31mi, 49km
Updated: 17/12/2017 15:20
Partly Cloudy
Partly Cloudy
 Wind from SW
Wind: SW 12 mph , 19 km/h
Temperature: 7°C
Wind Chill: 4°C
Dew Point: 7°C
Humidity: 100%
Barometer: 1015 hPa
Clouds: Partly Cloudy
Visibility: 6 miles , 10 km
Cloud details: Few Clouds 457 m
Partly Cloudy 945 m
2017/12/17 15:20 EGCN 171520Z 23010KT 9999 FEW015 SCT031 07/07 Q1015
 
EGXS - Swinderby Raf, United Kingdom
Distance from station: E 33mi, 54km
Updated: 17/12/2017 14:50
Mostly Cloudy
Mostly Cloudy
 Wind from S
Wind: S 16 mph , 26 km/h
Temperature: 3°C
Wind Chill: -2°C
Dew Point: 3°C
Humidity: 100%
Barometer: 1015 hPa
Clouds: Mostly Cloudy
Visibility: 6 miles , 9 km
Cloud details: Few Clouds 183 m
Partly Cloudy 792 m
Mostly Cloudy 1524 m
2017/12/17 14:50 EGXS 171450Z AUTO 19014KT 9000 // FEW006/// SCT026/// BKN050/// 03/03 Q1015
EGCC - Manchester Intl, United Kingdom
Distance from station: WNW 35mi, 56km
Updated: 17/12/2017 15:20
Light rain, Drizzle, Mostly cloudy
Light rain, Drizzle, Mostly cloudy
 Wind from SSW
Wind: SSW 7 mph , 11 km/h
Temperature: 8°C
Wind Chill: 6°C
Dew Point: 8°C
Humidity: 100%
Barometer: 1015 hPa
Summary: Light rain, Drizzle
Clouds: Mostly Cloudy
Visibility: 2 miles , 4 km
Cloud details: Few Clouds 0 m
Mostly Cloudy 91 m
2017/12/17 15:20 EGCC 171520Z 21006KT 180V240 4000 -RADZ FEW000 BKN003 08/08 Q1015 RERA REDZ
 
EGXP - Scampton Raf, United Kingdom
Distance from station: ENE 40mi, 65km
Updated: 17/12/2017 14:50
Mostly Cloudy
Mostly Cloudy
 Wind from SSW
Wind: SSW 16 mph , 26 km/h
Temperature: 6°C
Wind Chill: 2°C
Dew Point: 6°C
Humidity: 100%
Barometer: 1015 hPa
Clouds: Mostly Cloudy
Visibility: 6 miles , 10 km
Cloud details: Mostly Cloudy 122 m
2017/12/17 14:50 EGXP 171450Z AUTO 21014KT 9999 // BKN004/// 06/06 Q1015
EGXW - Waddington Raf, United Kingdom
Distance from station: E 40mi, 65km
Updated: 17/12/2017 14:50
Mostly Cloudy
Mostly Cloudy
 Wind from SSW
Wind: SSW 16 mph , 26 km/h
Temperature: 6°C
Wind Chill: 2°C
Dew Point: 5°C
Humidity: 93%
Barometer: 1015 hPa
Clouds: Mostly Cloudy
Visibility: 6 miles , 10 km
Cloud details: Mostly Cloudy 183 m
Mostly Cloudy 396 m
2017/12/17 14:50 EGXW 171450Z 21014KT 9999 BKN006 BKN013 06/05 Q1015 YLO1

Home | Sitemap | Software Status | About Us | Contact Us

Powered by Cumulus   (Build ) © sheffieldwx.co.uk      

2 visitors online now
Max visitors today: 2 at 01:37 am GMT
This month: 4 at 12-04-2017 12:38 am GMT
This year: 14 at 05-08-2017 07:02 pm BST
All time: 35 at 10-10-2015 04:40 pm BST